KTOA/TOA METAR and TAF weather

Enter ICAO airport designator
Station Type Date Time Source
KTOA METAR 2022/08/13 02:50 UTC NOAA

KTOA 130250Z 27005KT 10SM FEW080 SCT150 24/13 A2988


Station Type Date Time Source
KTOA Decoded METAR 2022/08/13 02:50 UTC NOAA

Torrance, Zamperini Field Airport, CA, United States (KTOA) 33-48N 118-20W
Aug 12, 2022 - 10:50 PM EDT / 2022.08.13 0250 UTC
Wind: from the W (270 degrees) at 6 MPH (5 KT):0
Visibility: 10 mile(s):0
Sky conditions: partly cloudy
Temperature: 75 F (24 C)
Dew Point: 55 F (13 C)
Relative Humidity: 50%
Pressure (altimeter): 29.88 in. Hg (1011 hPa)
ob: KTOA 130250Z 27005KT 10SM FEW080 SCT150 24/13 A2988
cycle: 3

Station Type Date Time Source
KTOA TAF UTC NOAA

Error!

Example: see airport list